createdAt,value
2022-10-19T00:04:32.243Z,9.40
2022-10-19T00:09:36.453Z,8.43
2022-10-19T00:14:40.532Z,11.88
2022-10-19T00:19:48.537Z,5.57
2022-10-19T00:24:53.642Z,5.90
2022-10-19T00:29:57.767Z,7.32
2022-10-19T00:35:03.822Z,5.25
2022-10-19T00:40:09.904Z,10.77
2022-10-19T00:45:16.948Z,8.57
2022-10-19T00:50:22.898Z,6.30
2022-10-19T00:55:27.355Z,5.43
2022-10-19T01:00:31.978Z,4.57
2022-10-19T01:05:39.707Z,17.70
2022-10-19T01:10:50.397Z,12.70
2022-10-19T01:16:01.796Z,9.38
2022-10-19T01:21:22.947Z,4.65
2022-10-19T01:26:45.460Z,7.50
2022-10-19T01:31:57.255Z,9.45
2022-10-19T01:37:08.450Z,6.10
2022-10-19T01:42:18.125Z,8.00
2022-10-19T01:47:27.250Z,8.40
2022-10-19T01:52:35.302Z,7.78
2022-10-19T01:57:44.871Z,12.45
2022-10-19T02:02:52.516Z,10.05
2022-10-19T02:08:02.611Z,7.55
2022-10-19T02:13:09.460Z,12.65
2022-10-19T02:18:19.887Z,6.28
2022-10-19T02:23:27.063Z,6.80
2022-10-19T02:28:31.705Z,7.28
2022-10-19T02:33:38.156Z,6.10
2022-10-19T02:38:43.490Z,4.18
2022-10-19T02:43:51.419Z,9.07
2022-10-19T02:48:59.335Z,6.90
2022-10-19T02:54:05.356Z,9.75
2022-10-19T02:59:09.721Z,8.18
2022-10-19T03:04:15.750Z,5.63
2022-10-19T03:09:20.381Z,41.30
2022-10-19T03:14:24.520Z,26.85
2022-10-19T03:19:31.156Z,9.52
2022-10-19T03:24:37.245Z,13.25
2022-10-19T03:29:41.749Z,7.70
2022-10-19T03:34:47.381Z,8.98
2022-10-19T03:39:51.365Z,39.25
2022-10-19T03:44:55.345Z,12.27
2022-10-19T03:50:00.806Z,11.63
2022-10-19T03:55:04.942Z,44.08
2022-10-19T04:00:10.583Z,35.08
2022-10-19T04:05:21.956Z,8.68
2022-10-19T04:10:26.023Z,7.10
2022-10-19T04:15:30.355Z,6.30
2022-10-19T04:20:36.261Z,15.77
2022-10-19T04:25:40.715Z,22.15
2022-10-19T04:30:44.716Z,18.90
2022-10-19T04:35:50.396Z,20.08
2022-10-19T04:40:55.656Z,26.00
2022-10-19T04:46:04.434Z,35.65
2022-10-19T04:51:11.540Z,11.20
2022-10-19T04:56:17.608Z,21.67
2022-10-19T05:01:23.207Z,22.50
2022-10-19T05:06:29.223Z,17.15
2022-10-19T05:11:33.186Z,29.08
2022-10-19T05:16:37.101Z,32.55
2022-10-19T05:21:44.460Z,38.17
2022-10-19T05:26:48.506Z,30.23
2022-10-19T05:31:52.794Z,19.05
2022-10-19T05:36:58.404Z,26.38
2022-10-19T05:42:02.364Z,22.13
2022-10-19T05:47:06.571Z,39.30
2022-10-19T05:52:15.347Z,79.13
2022-10-19T05:57:19.390Z,37.13
2022-10-19T06:02:24.065Z,24.20
2022-10-19T06:07:29.484Z,20.15
2022-10-19T06:12:33.534Z,24.75
2022-10-19T06:17:37.509Z,22.02
2022-10-19T06:22:43.140Z,19.00
2022-10-19T06:27:47.779Z,29.40
2022-10-19T06:32:52.578Z,23.75
2022-10-19T06:37:58.970Z,16.27
2022-10-19T06:43:03.157Z,10.05
2022-10-19T06:48:08.272Z,10.10
2022-10-19T06:53:14.138Z,13.93
2022-10-19T06:58:18.205Z,12.10
2022-10-19T07:03:22.758Z,12.90
2022-10-19T07:08:30.045Z,15.00
2022-10-19T07:13:35.057Z,10.98
2022-10-19T07:18:41.645Z,10.00
2022-10-19T07:23:49.420Z,7.38
2022-10-19T07:28:58.287Z,10.32
2022-10-19T07:34:07.464Z,9.05
2022-10-19T07:39:13.293Z,15.73
2022-10-19T07:44:17.477Z,14.00
2022-10-19T07:49:21.876Z,12.30
2022-10-19T07:54:27.792Z,9.80
2022-10-19T07:59:31.987Z,8.68
2022-10-19T08:10:04.685Z,6.57
2022-10-19T08:15:10.821Z,3.33
2022-10-19T08:20:16.617Z,4.03
2022-10-19T08:25:22.508Z,4.20
2022-10-19T08:30:29.183Z,3.28
2022-10-19T08:35:33.447Z,3.28
2022-10-19T08:40:39.564Z,3.70
2022-10-19T08:45:45.324Z,3.17
2022-10-19T08:50:50.561Z,3.20
2022-10-19T08:56:15.024Z,4.03
2022-10-19T09:01:37.584Z,3.72
2022-10-19T09:06:51.117Z,6.32
2022-10-19T09:12:08.700Z,2.78
2022-10-19T09:17:17.027Z,2.35
2022-10-19T09:22:25.515Z,3.25
2022-10-19T09:27:37.056Z,2.50
2022-10-19T09:32:41.435Z,2.95
2022-10-19T09:37:49.584Z,3.88
2022-10-19T09:42:58.631Z,2.25
2022-10-19T09:48:10.813Z,5.85
2022-10-19T09:53:21.672Z,2.35
2022-10-19T09:58:32.937Z,4.65
2022-10-19T10:03:40.538Z,4.45
2022-10-19T10:08:49.010Z,7.47
2022-10-19T10:13:56.472Z,2.63
2022-10-19T10:19:05.689Z,2.47
2022-10-19T10:24:18.752Z,4.20
2022-10-19T10:29:28.174Z,5.53
2022-10-19T10:34:46.037Z,3.70
2022-10-19T10:39:57.836Z,2.85
2022-10-19T10:45:20.529Z,5.45
2022-10-19T10:50:27.198Z,14.45
2022-10-19T10:55:32.219Z,2.80
2022-10-19T11:00:40.515Z,4.65
2022-10-19T11:05:49.217Z,4.55
2022-10-19T11:11:00.875Z,3.03
2022-10-19T11:16:15.026Z,2.83
2022-10-19T11:21:25.777Z,6.88
2022-10-19T11:26:43.046Z,5.20
2022-10-19T11:31:51.706Z,9.27
2022-10-19T11:37:07.968Z,2.85
2022-10-19T11:42:22.168Z,3.85
2022-10-19T11:47:43.272Z,4.57
2022-10-19T11:52:58.407Z,2.45
2022-10-19T11:58:16.282Z,1.90
2022-10-19T12:03:42.755Z,25.30
2022-10-19T12:09:14.682Z,8.25
2022-10-19T12:14:22.863Z,1.02
2022-10-19T12:19:36.257Z,2.15
2022-10-19T12:24:40.243Z,3.92
2022-10-19T12:29:50.062Z,1.60
2022-10-19T12:35:03.439Z,1.33
2022-10-19T12:40:20.586Z,1.02
2022-10-19T12:45:30.972Z,1.50
2022-10-19T12:51:07.175Z,3.38
2022-10-19T12:56:17.237Z,1.45
2022-10-19T13:01:24.966Z,3.13
2022-10-19T13:06:35.606Z,1.90
2022-10-19T13:12:34.946Z,3.60
2022-10-19T13:17:43.868Z,6.95
2022-10-19T13:22:51.186Z,1.52
2022-10-19T13:28:01.550Z,2.83
2022-10-19T13:33:38.930Z,2.70
2022-10-19T13:38:44.551Z,1.67
2022-10-19T13:44:20.218Z,1.92
2022-10-19T13:49:54.642Z,2.08
2022-10-19T13:55:18.312Z,1.88
2022-10-19T14:00:26.849Z,2.05
2022-10-19T14:05:57.633Z,2.70
2022-10-19T14:11:07.851Z,2.17
2022-10-19T14:16:27.021Z,1.70
2022-10-19T14:26:36.992Z,5.50
2022-10-19T14:31:42.890Z,1.70
2022-10-19T14:36:49.588Z,1.70
2022-10-19T14:41:57.152Z,4.20
2022-10-19T14:47:17.408Z,4.70
2022-10-19T14:57:36.329Z,1.95
2022-10-19T15:02:46.271Z,3.33
2022-10-19T15:08:37.428Z,2.15
2022-10-19T15:14:11.816Z,9.43
2022-10-19T15:19:29.148Z,3.40
2022-10-19T15:24:33.172Z,4.03
2022-10-19T15:29:37.241Z,9.02
2022-10-19T15:34:45.065Z,2.05
2022-10-19T15:39:49.766Z,3.90
2022-10-19T15:44:54.730Z,2.08
2022-10-19T15:50:03.154Z,3.60
2022-10-19T15:55:08.209Z,4.97
2022-10-19T16:00:15.576Z,3.60
2022-10-19T16:05:21.865Z,3.35
2022-10-19T16:10:27.911Z,3.92
2022-10-19T16:15:32.004Z,4.00
2022-10-19T16:20:38.990Z,3.75
2022-10-19T16:25:43.706Z,1.50
2022-10-19T16:30:55.252Z,4.00
2022-10-19T16:36:05.512Z,2.88
2022-10-19T16:41:12.017Z,4.57
2022-10-19T16:46:16.350Z,3.08
2022-10-19T16:51:38.504Z,7.38
2022-10-19T16:56:45.648Z,5.68
2022-10-19T17:01:53.890Z,7.60
2022-10-19T17:07:00.253Z,5.22
2022-10-19T17:12:06.906Z,6.78
2022-10-19T17:17:12.175Z,6.38
2022-10-19T17:22:20.382Z,5.13
2022-10-19T17:27:24.553Z,2.93
2022-10-19T17:32:28.714Z,11.25
2022-10-19T17:37:34.573Z,7.95
2022-10-19T17:42:39.598Z,12.55
2022-10-19T17:47:43.616Z,8.90
2022-10-19T17:52:51.717Z,6.55
2022-10-19T17:57:56.285Z,6.35
2022-10-19T18:03:00.349Z,3.60
2022-10-19T18:08:05.919Z,5.53
2022-10-19T18:13:10.861Z,5.18
2022-10-19T18:18:14.868Z,9.27
2022-10-19T18:23:21.768Z,5.32
2022-10-19T18:28:27.391Z,6.68
2022-10-19T18:33:32.536Z,13.77
2022-10-19T18:38:38.924Z,8.60
2022-10-19T18:43:43.024Z,11.85
2022-10-19T18:48:47.970Z,10.82
2022-10-19T18:53:55.439Z,10.18
2022-10-19T18:58:59.670Z,6.22
2022-10-19T19:04:09.707Z,12.48
2022-10-19T19:09:15.910Z,7.30
2022-10-19T19:14:22.106Z,16.48
2022-10-19T19:19:27.641Z,10.02
2022-10-19T19:24:33.139Z,9.07
2022-10-19T19:29:40.145Z,6.75
2022-10-19T19:34:44.582Z,8.48
2022-10-19T19:39:51.085Z,8.15
2022-10-19T19:44:58.805Z,7.72
2022-10-19T19:50:02.817Z,8.18
2022-10-19T19:55:11.141Z,10.15
2022-10-19T20:00:16.554Z,8.85
2022-10-19T20:05:22.346Z,6.68
2022-10-19T20:10:28.231Z,6.25
2022-10-19T20:15:34.577Z,7.45
2022-10-19T20:20:38.832Z,8.85
2022-10-19T20:25:44.596Z,12.48
2022-10-19T20:30:48.657Z,7.97
2022-10-19T20:35:52.973Z,7.15
2022-10-19T20:41:01.058Z,11.15
2022-10-19T20:46:11.505Z,14.00
2022-10-19T20:51:20.745Z,11.93
2022-10-19T20:56:28.298Z,17.05
2022-10-19T21:01:35.067Z,11.00
2022-10-19T21:06:41.572Z,13.68
2022-10-19T21:11:50.229Z,10.93
2022-10-19T21:16:56.554Z,11.57
2022-10-19T21:22:03.173Z,11.60
2022-10-19T21:27:10.928Z,15.13
2022-10-19T21:32:14.908Z,10.48
2022-10-19T21:37:20.413Z,12.88
2022-10-19T21:42:29.092Z,13.20
2022-10-19T21:47:33.557Z,12.80
2022-10-19T21:52:40.230Z,12.65
2022-10-19T21:57:50.247Z,12.95
2022-10-19T22:02:55.804Z,14.52
2022-10-19T22:08:00.145Z,13.23
2022-10-19T22:13:05.570Z,18.40
2022-10-19T22:18:10.142Z,15.63
2022-10-19T22:23:14.657Z,15.32
2022-10-19T22:28:20.343Z,14.25
2022-10-19T22:33:25.278Z,12.25
2022-10-19T22:38:30.213Z,12.85
2022-10-19T22:43:35.600Z,9.95
2022-10-19T22:48:39.629Z,10.10
2022-10-19T22:53:43.984Z,12.18
2022-10-19T22:58:49.506Z,8.55
2022-10-19T23:03:53.500Z,8.15
2022-10-19T23:08:57.531Z,8.85
2022-10-19T23:14:02.923Z,16.23
2022-10-19T23:19:06.938Z,9.73
2022-10-19T23:24:11.097Z,9.10
2022-10-19T23:29:16.497Z,9.52
2022-10-19T23:34:20.621Z,15.88
2022-10-19T23:39:24.852Z,14.18
2022-10-19T23:44:30.334Z,11.57
2022-10-19T23:49:34.723Z,12.43
2022-10-19T23:54:38.818Z,8.98
2022-10-19T23:59:44.228Z,13.50
